Time;durP1;ratioP1;P1;durP2;ratioP2;P2;SDS_P1;SDS_P2;PMS_P1;PMS_P2;Temp;Humidity;BMP_temperature;BMP_pressure;BME280_temperature;BME280_humidity;BME280_pressure;Samples;Min_cycle;Max_cycle;Signal;HPM_P1;HPM_P2
2021/08/09 00:02:05;;;;;;;0.90;0.90;;;15.50;99.90;;;;;;4984460;28;20401;-75
2021/08/09 00:04:35;;;;;;;0.90;0.90;;;15.50;99.90;;;;;;4981522;28;21265;-77
2021/08/09 00:07:01;;;;;;;1.10;1.00;;;15.50;99.90;;;;;;4968849;28;20410;-77
2021/08/09 00:09:27;;;;;;;1.10;1.10;;;15.50;99.90;;;;;;4968777;28;20381;-76
2021/08/09 00:11:52;;;;;;;1.00;1.00;;;15.50;99.90;;;;;;4992290;28;20441;-77
2021/08/09 00:14:18;;;;;;;0.85;0.85;;;15.40;99.90;;;;;;4969786;28;20429;-76
2021/08/09 00:16:44;;;;;;;0.87;0.87;;;15.40;99.90;;;;;;4986970;28;20392;-77
2021/08/09 00:19:09;;;;;;;1.00;1.00;;;15.40;99.90;;;;;;4987420;28;20409;-76
2021/08/09 00:21:35;;;;;;;1.23;1.07;;;15.30;99.90;;;;;;4971949;28;22040;-77
2021/08/09 00:24:01;;;;;;;1.08;1.08;;;15.30;99.90;;;;;;4971834;28;20496;-76
2021/08/09 00:26:29;;;;;;;0.90;0.90;;;15.20;99.90;;;;;;4964746;28;20424;-76
2021/08/09 00:28:55;;;;;;;0.90;0.90;;;15.20;99.90;;;;;;4989460;28;20393;-76
2021/08/09 00:31:21;;;;;;;0.90;0.90;;;15.20;99.90;;;;;;4970102;28;20411;-76
2021/08/09 00:33:47;;;;;;;0.85;0.85;;;15.20;99.90;;;;;;4972377;28;20443;-76
2021/08/09 00:36:12;;;;;;;0.70;0.70;;;15.10;99.90;;;;;;4974228;28;20777;-76
2021/08/09 00:38:43;;;;;;;0.90;0.90;;;15.10;99.90;;;;;;4972162;28;20907;-76
2021/08/09 00:41:09;;;;;;;0.80;0.80;;;15.00;99.90;;;;;;4971435;28;20455;-77
2021/08/09 00:43:35;;;;;;;2.40;0.90;;;15.00;99.90;;;;;;4971696;28;20407;-76
2021/08/09 00:46:04;;;;;;;2.92;0.95;;;14.90;99.90;;;;;;4971286;28;20469;-76
2021/08/09 00:48:34;;;;;;;1.03;0.97;;;14.90;99.90;;;;;;4977302;28;20389;-75
2021/08/09 00:51:04;;;;;;;0.88;0.88;;;14.90;99.90;;;;;;4971872;28;20431;-77
2021/08/09 00:53:33;;;;;;;0.97;0.97;;;14.90;99.90;;;;;;4947293;28;21207;-74
2021/08/09 00:56:02;;;;;;;0.90;0.90;;;14.80;99.90;;;;;;4971331;28;20389;-75
2021/08/09 00:58:28;;;;;;;0.80;0.80;;;14.80;99.90;;;;;;4970782;28;20399;-75
2021/08/09 01:00:53;;;;;;;0.97;0.97;;;14.80;99.90;;;;;;4971426;28;20393;-76
2021/08/09 01:03:19;;;;;;;0.80;0.80;;;14.70;99.90;;;;;;4988157;28;20436;-76
2021/08/09 01:05:49;;;;;;;0.70;0.70;;;14.60;99.90;;;;;;4970816;28;20464;-75
2021/08/09 01:08:22;;;;;;;0.95;0.90;;;14.70;99.90;;;;;;4969748;28;20555;-75
2021/08/09 01:11:44;;;;;;;3.10;1.38;;;14.60;99.90;;;;;;5009461;28;20412;-75
2021/08/09 01:14:30;;;;;;;0.95;0.95;;;14.50;99.90;;;;;;4939262;28;20396;-74
2021/08/09 01:16:56;;;;;;;0.80;0.80;;;14.40;99.90;;;;;;4986686;28;20413;-76
2021/08/09 01:19:29;;;;;;;0.90;0.90;;;14.50;99.90;;;;;;4969943;28;20421;-76
2021/08/09 01:22:01;;;;;;;0.67;0.67;;;14.40;99.90;;;;;;4986567;28;20395;-75
2021/08/09 01:24:45;;;;;;;0.88;0.88;;;14.40;99.90;;;;;;4970326;28;20422;-75
2021/08/09 01:27:27;;;;;;;1.20;1.10;;;14.40;99.90;;;;;;4968446;28;20398;-75
2021/08/09 01:29:52;;;;;;;1.00;1.00;;;14.40;99.90;;;;;;5002740;28;20401;-75
2021/08/09 01:32:19;;;;;;;0.90;0.90;;;14.30;99.90;;;;;;4968419;28;20438;-74
2021/08/09 01:34:45;;;;;;;0.95;0.90;;;14.30;99.90;;;;;;4958697;28;20912;-73
2021/08/09 01:37:12;;;;;;;4.00;0.90;;;14.20;99.90;;;;;;4967966;28;20410;-75
2021/08/09 01:39:38;;;;;;;0.80;0.80;;;14.20;99.90;;;;;;5013195;28;20809;-74
2021/08/09 01:42:04;;;;;;;0.88;0.88;;;14.20;99.90;;;;;;4964598;28;20404;-76
2021/08/09 01:44:29;;;;;;;0.80;0.80;;;14.20;99.90;;;;;;4970900;28;20405;-75
2021/08/09 01:46:55;;;;;;;0.85;0.85;;;14.20;99.90;;;;;;4974366;28;20401;-73
2021/08/09 01:49:23;;;;;;;0.80;0.80;;;14.10;99.90;;;;;;4967939;28;20400;-73
2021/08/09 01:51:49;;;;;;;0.85;0.85;;;14.10;99.90;;;;;;4970350;28;20471;-75
2021/08/09 01:54:16;;;;;;;0.90;0.90;;;14.10;99.90;;;;;;4971871;28;20826;-76
2021/08/09 01:56:42;;;;;;;0.60;0.60;;;14.00;99.90;;;;;;4966254;28;20406;-75
2021/08/09 01:59:08;;;;;;;1.17;1.07;;;14.00;99.90;;;;;;4970833;28;20416;-75
2021/08/09 02:01:34;;;;;;;0.90;0.90;;;14.00;99.90;;;;;;4968496;28;20424;-75
2021/08/09 02:04:00;;;;;;;1.02;1.00;;;14.10;99.90;;;;;;4971049;28;20524;-74
2021/08/09 02:06:26;;;;;;;1.10;1.00;;;14.00;99.90;;;;;;4970468;28;20405;-75
2021/08/09 02:08:52;;;;;;;2.20;0.90;;;14.00;99.90;;;;;;4969568;28;20715;-76
2021/08/09 02:11:45;;;;;;;0.80;0.80;;;14.00;99.90;;;;;;4987391;28;20397;-73
2021/08/09 02:14:11;;;;;;;0.80;0.80;;;13.90;99.90;;;;;;4972553;28;20410;-75
2021/08/09 02:16:42;;;;;;;0.87;0.87;;;13.90;99.90;;;;;;4978978;28;20405;-74
2021/08/09 02:19:19;;;;;;;0.90;0.90;;;13.80;99.90;;;;;;4952830;28;20787;-73
2021/08/09 02:21:51;;;;;;;0.87;0.87;;;13.80;99.90;;;;;;4970260;28;20424;-73
2021/08/09 02:24:40;;;;;;;0.90;0.90;;;13.80;99.90;;;;;;4974320;28;20409;-75
2021/08/09 02:27:10;;;;;;;1.00;1.00;;;13.80;99.90;;;;;;4999690;28;20404;-75
2021/08/09 02:29:36;;;;;;;0.90;0.90;;;13.80;99.90;;;;;;4973117;28;20405;-78
2021/08/09 02:32:02;;;;;;;0.90;0.90;;;13.70;99.90;;;;;;4970494;28;20403;-75
2021/08/09 02:34:29;;;;;;;1.00;1.00;;;13.70;99.90;;;;;;4973325;28;20389;-77
2021/08/09 02:36:55;;;;;;;0.80;0.80;;;13.60;99.90;;;;;;4972645;28;20397;-75
2021/08/09 02:39:21;;;;;;;0.80;0.80;;;13.60;99.90;;;;;;4968751;28;20986;-75
2021/08/09 02:41:47;;;;;;;0.80;0.80;;;13.60;99.90;;;;;;4974192;28;20421;-74
2021/08/09 02:44:12;;;;;;;0.80;0.80;;;13.60;99.90;;;;;;4974088;28;20409;-75
2021/08/09 02:46:40;;;;;;;1.00;1.00;;;13.60;99.90;;;;;;4972969;28;20465;-76
2021/08/09 02:49:07;;;;;;;0.90;0.90;;;13.60;99.90;;;;;;4983295;28;20422;-74
2021/08/09 02:51:33;;;;;;;0.88;0.88;;;13.60;99.90;;;;;;4988605;28;20415;-75
2021/08/09 02:53:58;;;;;;;0.80;0.80;;;13.50;99.90;;;;;;4970954;28;20397;-74
2021/08/09 02:56:24;;;;;;;0.65;0.65;;;13.50;99.90;;;;;;4972171;28;20401;-73
2021/08/09 02:58:51;;;;;;;0.80;0.80;;;13.50;99.90;;;;;;4970837;28;20402;-73
2021/08/09 03:01:17;;;;;;;0.80;0.80;;;13.50;99.90;;;;;;4972081;28;20932;-74
2021/08/09 03:03:43;;;;;;;0.88;0.88;;;13.50;99.90;;;;;;4970399;28;20405;-74
2021/08/09 03:06:09;;;;;;;0.90;0.90;;;13.40;99.90;;;;;;4972114;28;20396;-73
2021/08/09 03:08:35;;;;;;;1.40;1.10;;;13.40;99.90;;;;;;4989335;28;20405;-75
2021/08/09 03:11:00;;;;;;;1.08;1.08;;;13.30;99.90;;;;;;4973022;28;20401;-76
2021/08/09 03:13:26;;;;;;;0.90;0.90;;;13.30;99.90;;;;;;4989260;28;20897;-75
2021/08/09 03:15:54;;;;;;;0.90;0.90;;;13.30;99.90;;;;;;4986218;28;20392;-77
2021/08/09 03:18:19;;;;;;;1.30;0.80;;;13.30;99.90;;;;;;4973383;28;20408;-73
2021/08/09 03:20:46;;;;;;;1.00;1.00;;;13.30;99.90;;;;;;4972550;28;20408;-76
2021/08/09 03:23:12;;;;;;;1.10;1.10;;;13.20;99.90;;;;;;5005339;28;20415;-75
2021/08/09 03:25:38;;;;;;;0.80;0.80;;;13.20;99.90;;;;;;4970924;28;20414;-74
2021/08/09 03:28:05;;;;;;;1.10;0.98;;;13.20;99.90;;;;;;4972412;28;20533;-74
2021/08/09 03:30:31;;;;;;;0.85;0.85;;;13.20;99.90;;;;;;4955153;28;20432;-73
2021/08/09 03:32:57;;;;;;;1.08;1.00;;;13.20;99.90;;;;;;4988216;28;20447;-75
2021/08/09 03:35:23;;;;;;;0.80;0.80;;;13.20;99.90;;;;;;4987032;28;20405;-74
2021/08/09 03:37:51;;;;;;;0.90;0.90;;;13.10;99.90;;;;;;4971431;28;20394;-77
2021/08/09 03:40:18;;;;;;;1.98;1.00;;;13.10;99.90;;;;;;4971198;28;20403;-77
2021/08/09 03:42:43;;;;;;;0.98;0.98;;;13.10;99.90;;;;;;4971484;28;20424;-76
2021/08/09 03:45:09;;;;;;;0.80;0.80;;;13.10;99.90;;;;;;4988915;28;20399;-73
2021/08/09 03:47:35;;;;;;;0.82;0.82;;;13.10;99.90;;;;;;4987537;28;20397;-74
2021/08/09 03:50:01;;;;;;;0.90;0.90;;;13.10;99.90;;;;;;5002457;28;21029;-72
2021/08/09 03:52:26;;;;;;;0.90;0.90;;;13.10;99.90;;;;;;4987524;28;20442;-74
2021/08/09 03:54:52;;;;;;;1.10;1.10;;;13.10;99.90;;;;;;4970188;28;20991;-76
2021/08/09 03:57:18;;;;;;;0.98;0.98;;;13.10;99.90;;;;;;4987552;28;20418;-73
2021/08/09 03:59:44;;;;;;;0.90;0.90;;;13.10;99.90;;;;;;4988089;28;20500;-74
2021/08/09 04:02:14;;;;;;;0.90;0.90;;;13.10;99.90;;;;;;4970573;28;20393;-75
2021/08/09 04:04:41;;;;;;;0.93;0.93;;;13.10;99.90;;;;;;4972683;28;20413;-75
2021/08/09 04:07:06;;;;;;;0.85;0.85;;;13.10;99.90;;;;;;4971265;28;21124;-76
2021/08/09 04:09:32;;;;;;;1.00;1.00;;;13.10;99.90;;;;;;4982236;28;20407;-75
2021/08/09 04:11:58;;;;;;;1.20;1.10;;;13.10;99.90;;;;;;4988098;28;20459;-74
2021/08/09 04:14:24;;;;;;;0.97;0.93;;;13.20;99.90;;;;;;4980328;28;20486;-74
2021/08/09 04:16:50;;;;;;;1.23;1.13;;;13.10;99.90;;;;;;4963090;28;20397;-75
2021/08/09 04:19:15;;;;;;;1.20;1.10;;;13.20;99.90;;;;;;4984647;28;20426;-75
2021/08/09 04:21:42;;;;;;;1.08;0.98;;;13.20;99.90;;;;;;4971311;28;20403;-74
2021/08/09 04:24:07;;;;;;;0.88;0.88;;;13.20;99.90;;;;;;4966356;28;20465;-75
2021/08/09 04:26:34;;;;;;;1.15;1.05;;;13.20;99.90;;;;;;4960263;28;20410;-73
2021/08/09 04:29:00;;;;;;;1.00;1.00;;;13.20;99.90;;;;;;4977752;28;20409;-74
2021/08/09 04:31:26;;;;;;;0.90;0.90;;;13.20;99.90;;;;;;4967259;28;20775;-72
2021/08/09 04:33:51;;;;;;;1.65;1.55;;;13.30;99.90;;;;;;5002047;28;20401;-73
2021/08/09 04:36:18;;;;;;;2.17;1.83;;;13.30;99.90;;;;;;4970388;28;20536;-73
2021/08/09 04:38:44;;;;;;;1.27;1.27;;;13.30;99.90;;;;;;4987295;28;20397;-73
2021/08/09 04:41:10;;;;;;;1.20;1.10;;;13.30;99.90;;;;;;4985878;28;20991;-73
2021/08/09 04:43:40;;;;;;;1.60;1.00;;;13.40;99.90;;;;;;4973837;28;20459;-73
2021/08/09 04:46:06;;;;;;;1.00;1.00;;;13.40;99.90;;;;;;4970683;28;20396;-74
2021/08/09 04:48:34;;;;;;;0.93;0.93;;;13.50;99.90;;;;;;4985285;28;20409;-73
2021/08/09 04:51:00;;;;;;;1.80;1.35;;;13.60;99.90;;;;;;4970373;28;20408;-74
2021/08/09 04:53:26;;;;;;;1.20;1.20;;;13.60;99.90;;;;;;4969066;28;20420;-72
2021/08/09 04:55:52;;;;;;;1.10;1.10;;;13.70;99.90;;;;;;4968622;28;20490;-75
2021/08/09 04:58:18;;;;;;;1.00;1.00;;;13.80;99.90;;;;;;4968293;28;20431;-73
2021/08/09 05:00:45;;;;;;;1.00;1.00;;;13.80;99.90;;;;;;4969691;28;20417;-74
2021/08/09 05:03:11;;;;;;;1.40;1.20;;;13.90;99.90;;;;;;5004314;28;20409;-74
2021/08/09 05:05:37;;;;;;;0.95;0.93;;;14.00;99.90;;;;;;4969588;28;20427;-74
2021/08/09 05:08:03;;;;;;;1.00;1.00;;;14.00;99.90;;;;;;4984571;28;20406;-74
2021/08/09 05:10:31;;;;;;;1.27;1.17;;;14.10;99.90;;;;;;4984819;28;20428;-74
2021/08/09 05:12:57;;;;;;;0.90;0.90;;;14.20;99.90;;;;;;4968170;28;20443;-73
2021/08/09 05:15:24;;;;;;;1.30;1.20;;;14.30;99.90;;;;;;4965861;28;20432;-74
2021/08/09 05:17:50;;;;;;;0.90;0.90;;;14.40;99.90;;;;;;4983991;28;20927;-74
2021/08/09 05:20:16;;;;;;;0.88;0.88;;;14.50;99.90;;;;;;4966996;28;20400;-74
2021/08/09 05:22:42;;;;;;;0.83;0.83;;;14.60;99.90;;;;;;4984832;28;20987;-74
2021/08/09 05:25:10;;;;;;;0.90;0.90;;;14.70;99.90;;;;;;4986768;28;21078;-74
2021/08/09 05:27:36;;;;;;;1.60;1.00;;;14.80;99.90;;;;;;4986425;28;21136;-75
2021/08/09 05:30:02;;;;;;;0.95;0.95;;;14.90;99.90;;;;;;4968667;28;20944;-75
2021/08/09 05:32:29;;;;;;;0.80;0.80;;;15.00;99.90;;;;;;4966323;28;20408;-75
2021/08/09 05:34:55;;;;;;;2.30;0.90;;;15.10;99.90;;;;;;4968707;28;20393;-74
2021/08/09 05:37:20;;;;;;;1.10;1.00;;;15.20;99.90;;;;;;4983447;28;20907;-74
2021/08/09 05:39:46;;;;;;;1.10;1.00;;;15.30;99.90;;;;;;4967571;28;20820;-75
2021/08/09 05:42:13;;;;;;;0.73;0.73;;;15.40;99.90;;;;;;4991563;28;20385;-74
2021/08/09 05:44:39;;;;;;;1.07;1.07;;;15.50;99.90;;;;;;4986905;28;20982;-74
2021/08/09 05:47:05;;;;;;;0.80;0.80;;;15.50;99.90;;;;;;4969836;28;20423;-74
2021/08/09 05:49:31;;;;;;;1.67;1.10;;;15.60;99.90;;;;;;4984365;28;20920;-74
2021/08/09 05:51:56;;;;;;;0.90;0.90;;;15.70;99.90;;;;;;4968113;28;20455;-75
2021/08/09 05:54:22;;;;;;;0.80;0.80;;;15.80;99.90;;;;;;4967892;28;20563;-75
2021/08/09 05:56:48;;;;;;;0.90;0.90;;;15.80;99.90;;;;;;4984910;28;20423;-75
2021/08/09 05:59:15;;;;;;;1.00;1.00;;;16.00;99.90;;;;;;4956283;28;20464;-75
2021/08/09 06:01:41;;;;;;;0.90;0.90;;;16.10;99.90;;;;;;4973910;28;20924;-74
2021/08/09 06:04:08;;;;;;;0.95;0.95;;;16.10;99.90;;;;;;4972901;28;20418;-75
2021/08/09 06:06:33;;;;;;;0.70;0.70;;;16.20;99.90;;;;;;4970815;28;20398;-75
2021/08/09 06:09:14;;;;;;;1.80;1.00;;;16.30;99.90;;;;;;4987634;28;20415;-74
2021/08/09 06:11:42;;;;;;;1.17;1.13;;;16.40;99.90;;;;;;4990171;28;20996;-75
2021/08/09 06:14:08;;;;;;;1.03;0.97;;;16.50;99.90;;;;;;4972340;28;20409;-74
2021/08/09 06:16:34;;;;;;;1.27;0.93;;;16.70;99.90;;;;;;4974333;28;20404;-75
2021/08/09 06:19:00;;;;;;;0.90;0.90;;;16.80;99.90;;;;;;4971381;28;20397;-75
2021/08/09 06:21:31;;;;;;;0.88;0.88;;;16.90;99.90;;;;;;4973256;28;20943;-75
2021/08/09 06:23:56;;;;;;;1.08;0.98;;;17.10;99.90;;;;;;4972810;28;20405;-75
2021/08/09 06:26:22;;;;;;;0.80;0.80;;;17.20;99.90;;;;;;4974646;28;20397;-76
2021/08/09 06:28:49;;;;;;;0.93;0.93;;;17.30;99.90;;;;;;4989048;28;20409;-76
2021/08/09 06:31:14;;;;;;;0.75;0.75;;;17.40;99.90;;;;;;4988674;28;20946;-75
2021/08/09 06:33:40;;;;;;;1.20;0.90;;;17.60;99.90;;;;;;4964288;28;20392;-75
2021/08/09 06:36:06;;;;;;;1.00;0.95;;;17.70;99.90;;;;;;4987682;28;20407;-75
2021/08/09 06:38:33;;;;;;;1.20;1.10;;;17.90;99.90;;;;;;4954711;28;21101;-75
2021/08/09 06:40:59;;;;;;;0.88;0.88;;;18.00;99.90;;;;;;4977746;28;20399;-75
2021/08/09 06:43:27;;;;;;;1.63;1.07;;;18.20;99.90;;;;;;4990207;28;20597;-75
2021/08/09 06:45:53;;;;;;;0.80;0.80;;;18.30;99.90;;;;;;4967577;28;20763;-75
2021/08/09 06:48:20;;;;;;;1.65;1.10;;;18.50;99.90;;;;;;4972864;28;20443;-75
2021/08/09 06:50:46;;;;;;;1.05;0.95;;;18.70;99.90;;;;;;4971946;28;20450;-75
2021/08/09 06:53:12;;;;;;;1.10;1.00;;;18.70;99.90;;;;;;4972826;28;20413;-75
2021/08/09 06:55:43;;;;;;;1.10;1.10;;;18.80;99.90;;;;;;4953180;28;20396;-75
2021/08/09 06:58:08;;;;;;;1.52;1.02;;;19.00;99.90;;;;;;4963933;28;21057;-75
2021/08/09 07:00:34;;;;;;;0.97;0.93;;;19.10;99.90;;;;;;4965592;28;20462;-75
2021/08/09 07:03:07;;;;;;;0.90;0.90;;;19.30;99.90;;;;;;4977201;28;20406;-75
2021/08/09 07:05:39;;;;;;;1.00;1.00;;;19.40;99.90;;;;;;4976652;28;20422;-75
2021/08/09 07:08:05;;;;;;;1.10;1.00;;;19.50;99.90;;;;;;4974645;28;20431;-75
2021/08/09 07:10:31;;;;;;;0.90;0.90;;;19.70;99.90;;;;;;4986285;28;20915;-75
2021/08/09 07:12:57;;;;;;;0.77;0.75;;;19.80;99.90;;;;;;4972426;28;20464;-75
2021/08/09 07:15:23;;;;;;;0.83;0.83;;;19.90;99.90;;;;;;4985793;28;20413;-75
2021/08/09 07:17:49;;;;;;;0.80;0.80;;;20.00;99.90;;;;;;4970469;28;20408;-75
2021/08/09 07:20:15;;;;;;;0.98;0.98;;;20.00;99.90;;;;;;5001294;28;20426;-75
2021/08/09 07:22:43;;;;;;;1.00;1.00;;;20.00;99.90;;;;;;4957626;28;20550;-75
2021/08/09 07:25:10;;;;;;;1.10;1.00;;;20.00;99.90;;;;;;4983945;28;20404;-75
2021/08/09 07:27:37;;;;;;;1.10;1.00;;;20.20;99.90;;;;;;4984934;28;20836;-75
2021/08/09 07:30:04;;;;;;;0.75;0.75;;;20.30;99.90;;;;;;4988078;28;20412;-75
2021/08/09 07:32:30;;;;;;;1.00;0.90;;;20.40;99.90;;;;;;4969198;28;20478;-75
2021/08/09 07:34:56;;;;;;;0.73;0.73;;;20.40;99.90;;;;;;4978678;28;20610;-75
2021/08/09 07:37:21;;;;;;;1.00;1.00;;;20.50;99.90;;;;;;4966569;28;20412;-75
2021/08/09 07:39:47;;;;;;;0.80;0.80;;;20.50;99.90;;;;;;4975854;28;20446;-75
2021/08/09 07:42:13;;;;;;;0.87;0.87;;;20.60;99.90;;;;;;4974009;28;20428;-75
2021/08/09 07:44:39;;;;;;;1.00;1.00;;;20.70;99.90;;;;;;4974287;28;20413;-76
2021/08/09 07:47:05;;;;;;;0.73;0.73;;;20.70;99.90;;;;;;4971202;28;20403;-76
2021/08/09 07:49:31;;;;;;;1.33;0.77;;;20.70;99.90;;;;;;4970838;28;20411;-75
2021/08/09 07:51:57;;;;;;;0.90;0.90;;;20.80;99.90;;;;;;4973881;28;20408;-75
2021/08/09 07:54:25;;;;;;;0.80;0.80;;;20.90;99.90;;;;;;4985836;28;20414;-75
2021/08/09 07:56:51;;;;;;;1.35;1.08;;;21.00;99.90;;;;;;4988228;28;20404;-75
2021/08/09 07:59:17;;;;;;;1.00;1.00;;;21.10;99.90;;;;;;4969104;28;20891;-76
2021/08/09 08:01:43;;;;;;;0.80;0.80;;;21.20;99.90;;;;;;4971979;28;20457;-75
2021/08/09 08:04:09;;;;;;;0.90;0.90;;;21.30;99.90;;;;;;4972076;28;20400;-75
2021/08/09 08:06:35;;;;;;;1.17;1.10;;;21.40;99.90;;;;;;4972140;28;20409;-74
2021/08/09 08:09:01;;;;;;;1.40;0.98;;;21.50;99.90;;;;;;4973297;28;20458;-75
2021/08/09 08:11:28;;;;;;;0.95;0.95;;;21.50;99.90;;;;;;4989401;28;20393;-75
2021/08/09 08:13:55;;;;;;;0.88;0.88;;;21.70;99.90;;;;;;4970674;28;20413;-75
2021/08/09 08:16:21;;;;;;;1.00;0.90;;;21.70;99.90;;;;;;4970174;28;20509;-75
2021/08/09 08:18:47;;;;;;;1.03;0.93;;;21.80;99.90;;;;;;4970679;28;20483;-75
2021/08/09 08:21:15;;;;;;;1.30;1.20;;;21.80;99.90;;;;;;4969800;28;20411;-75
2021/08/09 08:23:41;;;;;;;0.80;0.80;;;21.90;99.90;;;;;;4983265;28;20439;-75
2021/08/09 08:26:07;;;;;;;0.87;0.87;;;22.00;99.90;;;;;;4987976;28;20416;-75
2021/08/09 08:28:36;;;;;;;0.80;0.80;;;22.00;99.90;;;;;;4992325;28;20465;-75
2021/08/09 08:31:01;;;;;;;1.55;0.80;;;22.10;99.90;;;;;;4988832;28;20380;-75
2021/08/09 08:33:28;;;;;;;0.90;0.90;;;22.10;99.90;;;;;;4957005;28;20401;-75
2021/08/09 08:35:54;;;;;;;0.80;0.80;;;22.20;99.90;;;;;;4980135;28;20415;-75
2021/08/09 08:38:19;;;;;;;0.80;0.80;;;22.20;99.90;;;;;;5005030;28;20801;-75
2021/08/09 08:40:47;;;;;;;0.80;0.80;;;22.20;99.90;;;;;;4975834;28;20389;-75
2021/08/09 08:43:25;;;;;;;0.75;0.75;;;22.30;99.90;;;;;;4971539;28;20428;-75
2021/08/09 08:46:07;;;;;;;1.25;0.93;;;22.30;99.90;;;;;;5001001;28;20465;-75
2021/08/09 08:48:37;;;;;;;0.98;0.98;;;22.50;99.90;;;;;;4969493;28;20411;-75
2021/08/09 08:51:03;;;;;;;1.63;1.02;;;22.60;99.90;;;;;;4978969;28;20446;-75
2021/08/09 08:53:32;;;;;;;0.80;0.80;;;22.60;99.90;;;;;;4971992;28;20971;-77
2021/08/09 08:55:59;;;;;;;0.90;0.90;;;22.70;99.90;;;;;;4973672;28;20403;-75
2021/08/09 08:58:25;;;;;;;0.90;0.90;;;22.70;99.90;;;;;;5003185;28;20425;-75
2021/08/09 09:00:51;;;;;;;0.98;0.82;;;22.90;99.90;;;;;;4984916;28;20896;-76
2021/08/09 09:03:17;;;;;;;0.80;0.80;;;23.00;99.90;;;;;;4965478;28;20419;-75
2021/08/09 09:06:03;;;;;;;0.70;0.70;;;23.00;99.90;;;;;;4969664;28;20429;-76
2021/08/09 09:08:47;;;;;;;0.93;0.93;;;23.20;99.90;;;;;;5002173;28;20424;-75
2021/08/09 09:11:22;;;;;;;0.70;0.70;;;23.30;99.90;;;;;;4986353;28;20399;-75
2021/08/09 09:14:01;;;;;;;2.17;0.88;;;23.60;99.90;;;;;;4995100;28;20448;-76
2021/08/09 09:16:41;;;;;;;2.75;0.80;;;23.70;99.90;;;;;;4994528;28;20389;-75
2021/08/09 09:19:07;;;;;;;0.80;0.80;;;23.80;99.90;;;;;;4987716;28;20393;-75
2021/08/09 09:21:34;;;;;;;0.88;0.88;;;24.00;99.90;;;;;;4969852;28;20905;-76
2021/08/09 09:24:09;;;;;;;1.23;0.97;;;24.10;99.90;;;;;;4987203;28;20404;-75
2021/08/09 09:26:36;;;;;;;0.80;0.80;;;24.10;99.90;;;;;;4999855;28;20477;-75
2021/08/09 09:29:06;;;;;;;0.80;0.80;;;24.20;99.90;;;;;;4968878;28;20411;-75
2021/08/09 09:31:32;;;;;;;0.80;0.80;;;24.40;99.90;;;;;;4985193;28;20559;-75
2021/08/09 09:33:58;;;;;;;1.23;0.90;;;24.50;99.90;;;;;;4990964;28;20619;-75
2021/08/09 09:36:24;;;;;;;0.90;0.90;;;24.60;99.90;;;;;;4993290;28;21138;-75
2021/08/09 09:38:51;;;;;;;0.80;0.80;;;24.50;99.90;;;;;;4969219;28;20410;-75
2021/08/09 09:41:17;;;;;;;0.90;0.90;;;24.50;99.90;;;;;;4973653;28;20400;-75
2021/08/09 09:43:44;;;;;;;0.90;0.90;;;24.50;99.90;;;;;;4989212;28;20458;-75
2021/08/09 09:46:28;;;;;;;1.05;0.82;;;24.60;99.90;;;;;;4988074;28;20407;-75
2021/08/09 09:49:02;;;;;;;0.90;0.90;;;24.90;99.90;;;;;;4968506;28;20441;-75
2021/08/09 09:51:27;;;;;;;0.82;0.82;;;24.80;99.90;;;;;;4987898;28;20433;-76
2021/08/09 09:53:53;;;;;;;0.80;0.80;;;25.00;99.90;;;;;;4973201;28;21035;-75
2021/08/09 09:56:22;;;;;;;0.82;0.82;;;25.10;99.90;;;;;;4991389;28;20831;-75
2021/08/09 09:58:47;;;;;;;0.85;0.82;;;25.20;99.90;;;;;;4988127;28;20853;-75
2021/08/09 10:01:13;;;;;;;0.90;0.90;;;25.10;99.90;;;;;;4988125;28;20417;-76
2021/08/09 10:03:39;;;;;;;0.70;0.70;;;25.30;99.90;;;;;;5005384;28;20762;-76
2021/08/09 10:06:05;;;;;;;0.70;0.70;;;25.20;99.90;;;;;;4991003;28;20412;-75
2021/08/09 10:08:39;;;;;;;0.85;0.80;;;25.20;99.90;;;;;;4988146;28;20388;-75
2021/08/09 10:11:05;;;;;;;0.60;0.60;;;25.10;99.90;;;;;;4997526;28;20462;-75
2021/08/09 10:13:32;;;;;;;0.90;0.90;;;24.90;99.90;;;;;;4991611;28;20397;-75
2021/08/09 10:16:03;;;;;;;0.80;0.80;;;24.80;99.90;;;;;;5001834;28;20928;-75
2021/08/09 10:18:33;;;;;;;1.25;0.90;;;24.80;99.90;;;;;;4972779;28;20405;-75
2021/08/09 10:21:00;;;;;;;0.70;0.70;;;25.20;99.90;;;;;;4989072;28;20408;-75
2021/08/09 10:23:42;;;;;;;2.80;0.90;;;25.40;99.90;;;;;;4990610;28;20553;-75
2021/08/09 10:26:32;;;;;;;0.68;0.68;;;25.50;99.90;;;;;;4984124;28;20405;-76
2021/08/09 10:29:08;;;;;;;0.60;0.60;;;25.60;99.90;;;;;;4988101;28;21186;-75
2021/08/09 10:31:50;;;;;;;0.55;0.55;;;25.70;99.90;;;;;;4973930;28;20415;-76
2021/08/09 10:34:33;;;;;;;0.80;0.80;;;25.90;99.90;;;;;;4976740;28;20800;-76
2021/08/09 10:37:14;;;;;;;0.80;0.80;;;25.80;99.90;;;;;;4990377;28;20417;-75
2021/08/09 10:40:02;;;;;;;1.00;0.80;;;25.80;99.90;;;;;;4971882;28;20794;-75
2021/08/09 10:42:28;;;;;;;0.80;0.80;;;25.80;99.90;;;;;;4998765;28;20402;-76
2021/08/09 10:44:54;;;;;;;0.80;0.80;;;25.80;99.90;;;;;;5003016;28;20432;-76
2021/08/09 10:47:44;;;;;;;0.67;0.67;;;25.80;99.90;;;;;;4984222;28;20385;-75
2021/08/09 10:50:10;;;;;;;0.77;0.77;;;25.90;99.90;;;;;;5015110;28;20496;-75
2021/08/09 10:52:36;;;;;;;0.90;0.90;;;26.10;99.90;;;;;;4988447;28;20515;-75
2021/08/09 10:55:30;;;;;;;1.27;1.00;;;26.10;99.90;;;;;;4988191;28;20491;-75
2021/08/09 10:57:55;;;;;;;0.60;0.60;;;26.20;99.90;;;;;;4994081;28;20395;-75
2021/08/09 11:00:40;;;;;;;0.68;0.68;;;26.50;99.90;;;;;;4970286;28;21672;-75
2021/08/09 11:03:08;;;;;;;0.70;0.70;;;26.70;99.90;;;;;;5005834;28;20413;-75
2021/08/09 11:05:35;;;;;;;0.73;0.73;;;26.90;99.90;;;;;;4989667;28;20923;-76
2021/08/09 11:08:15;;;;;;;0.60;0.60;;;27.20;99.90;;;;;;4972424;28;20428;-76
2021/08/09 11:10:55;;;;;;;1.00;1.00;;;27.50;99.90;;;;;;5003673;28;20410;-76
2021/08/09 11:13:26;;;;;;;0.80;0.80;;;27.70;99.90;;;;;;5004721;28;20433;-76
2021/08/09 11:15:54;;;;;;;1.00;1.00;;;27.70;99.70;;;;;;4988328;28;20412;-75
2021/08/09 11:18:19;;;;;;;1.73;0.90;;;27.70;99.90;;;;;;4972505;28;20432;-76
2021/08/09 11:20:45;;;;;;;0.80;0.80;;;27.70;99.90;;;;;;4990505;28;20480;-76
2021/08/09 11:23:15;;;;;;;0.80;0.80;;;27.90;98.80;;;;;;4978485;28;20433;-76
2021/08/09 11:25:48;;;;;;;0.52;0.52;;;28.00;98.50;;;;;;4971324;28;20403;-77
2021/08/09 11:28:16;;;;;;;1.95;0.80;;;28.10;96.60;;;;;;4989724;28;20420;-76
2021/08/09 11:30:54;;;;;;;0.93;0.93;;;28.20;95.90;;;;;;4958667;28;20405;-76
2021/08/09 11:33:22;;;;;;;5.23;1.00;;;28.10;96.00;;;;;;4990935;28;20872;-75
2021/08/09 11:35:48;;;;;;;0.70;0.70;;;27.60;92.60;;;;;;4986239;28;20434;-75
2021/08/09 11:38:14;;;;;;;0.90;0.90;;;27.30;96.50;;;;;;4987070;28;20383;-76
2021/08/09 11:40:41;;;;;;;0.88;0.80;;;27.30;95.70;;;;;;4994555;28;20406;-75
2021/08/09 11:43:08;;;;;;;0.63;0.63;;;27.50;98.20;;;;;;4974838;28;20784;-75
2021/08/09 11:45:34;;;;;;;1.10;0.88;;;27.70;95.10;;;;;;4986531;28;21125;-75
2021/08/09 11:48:00;;;;;;;0.60;0.60;;;27.90;95.60;;;;;;4970791;28;20413;-75
2021/08/09 11:50:26;;;;;;;1.45;0.63;;;28.00;92.40;;;;;;4974731;28;20401;-77
2021/08/09 11:52:52;;;;;;;0.70;0.70;;;28.10;92.60;;;;;;4969076;28;20392;-75
2021/08/09 11:55:20;;;;;;;0.70;0.70;;;28.20;93.30;;;;;;4988901;28;20393;-76
2021/08/09 11:57:45;;;;;;;0.60;0.60;;;28.20;95.50;;;;;;4984204;28;20409;-76
2021/08/09 12:00:12;;;;;;;0.98;0.70;;;28.30;94.20;;;;;;4985645;28;20397;-75
2021/08/09 12:03:10;;;;;;;0.50;0.50;;;28.30;92.60;;;;;;4972292;28;21058;-75
2021/08/09 12:05:39;;;;;;;3.80;0.68;;;28.20;93.70;;;;;;4995886;28;20404;-75
2021/08/09 12:08:06;;;;;;;0.50;0.50;;;28.10;92.80;;;;;;4981860;28;20540;-76
2021/08/09 12:10:32;;;;;;;0.35;0.35;;;28.10;95.00;;;;;;4968552;28;20397;-75
2021/08/09 12:12:58;;;;;;;0.70;0.70;;;28.20;94.00;;;;;;5002073;28;20392;-76
2021/08/09 12:15:25;;;;;;;0.68;0.68;;;28.20;94.30;;;;;;4968716;28;20401;-75
2021/08/09 12:18:03;;;;;;;0.90;0.90;;;28.10;95.00;;;;;;4969261;28;20394;-75
2021/08/09 12:20:29;;;;;;;0.70;0.70;;;28.10;93.70;;;;;;5001661;28;20405;-75
2021/08/09 12:22:54;;;;;;;0.60;0.60;;;28.30;96.40;;;;;;4970945;28;20473;-76
2021/08/09 12:25:22;;;;;;;0.60;0.60;;;28.30;92.80;;;;;;4985437;28;20399;-76
2021/08/09 12:28:08;;;;;;;0.70;0.70;;;28.40;92.40;;;;;;5002097;28;20457;-77
2021/08/09 12:30:51;;;;;;;0.60;0.60;;;28.10;93.10;;;;;;4981321;28;20397;-76
2021/08/09 12:33:17;;;;;;;0.70;0.70;;;28.10;92.30;;;;;;4985195;28;20405;-76
2021/08/09 12:35:42;;;;;;;0.70;0.70;;;28.10;95.20;;;;;;4968412;28;20960;-75
2021/08/09 12:38:09;;;;;;;1.33;0.80;;;28.20;93.60;;;;;;4986534;28;20816;-76
2021/08/09 12:40:52;;;;;;;0.50;0.50;;;28.10;93.30;;;;;;4971506;28;20436;-77
2021/08/09 12:43:19;;;;;;;0.70;0.57;;;28.00;92.00;;;;;;4978309;28;20457;-76
2021/08/09 12:45:45;;;;;;;0.60;0.60;;;27.90;91.70;;;;;;4983050;28;20401;-77
2021/08/09 12:48:11;;;;;;;0.80;0.80;;;28.00;92.40;;;;;;4970106;28;20397;-77
2021/08/09 12:50:38;;;;;;;0.80;0.80;;;28.20;94.60;;;;;;4985307;28;20412;-77
2021/08/09 12:53:05;;;;;;;1.08;0.77;;;28.30;93.00;;;;;;4969575;28;20519;-77
2021/08/09 12:55:31;;;;;;;0.57;0.57;;;28.20;94.00;;;;;;4968005;28;20419;-76